Terminal Aerodrome Forecast
Issued by NWS Mt. Holly, NJ

Home | Current Version | Previous Version | Text Only | Print | Product List | Glossary On
Versions: 1 2 3 4 5 6 7 8 9 10 11 12 13 14 15 16 17 18
629
FTUS41 KPHI 090520
TAFABE
TAF
KABE 090520Z 0906/1006 27014KT P6SM BKN060
     FM091400 29015G25KT P6SM OVC040
     FM092200 29009KT P6SM BKN050=

USA.gov is the U.S. government's official web portal to all federal, state and local government web resources and services.